createdAt,value
2023-05-22T00:00:20.620Z,5.57
2023-05-22T00:02:48.607Z,5.68
2023-05-22T00:05:18.438Z,5.63
2023-05-22T00:07:46.245Z,5.53
2023-05-22T00:10:13.363Z,6.05
2023-05-22T00:12:40.499Z,5.60
2023-05-22T00:15:08.111Z,5.68
2023-05-22T00:17:35.471Z,5.90
2023-05-22T00:20:10.717Z,5.93
2023-05-22T00:22:37.974Z,5.78
2023-05-22T00:25:06.162Z,5.78
2023-05-22T00:27:34.168Z,5.57
2023-05-22T00:30:01.634Z,5.78
2023-05-22T00:32:29.133Z,5.95
2023-05-22T00:34:56.242Z,6.22
2023-05-22T00:37:23.336Z,5.65
2023-05-22T00:39:50.499Z,5.97
2023-05-22T00:42:18.674Z,5.68
2023-05-22T00:44:45.981Z,5.75
2023-05-22T00:47:13.025Z,6.05
2023-05-22T00:49:40.961Z,5.78
2023-05-22T00:52:09.234Z,5.90
2023-05-22T00:54:36.967Z,6.00
2023-05-22T00:57:05.024Z,5.88
2023-05-22T00:59:33.112Z,5.35
2023-05-22T01:02:00.325Z,5.70
2023-05-22T01:04:27.562Z,5.53
2023-05-22T01:06:55.361Z,5.43
2023-05-22T01:09:22.437Z,5.70
2023-05-22T01:11:55.268Z,5.93
2023-05-22T01:14:34.065Z,6.07
2023-05-22T01:17:10.019Z,5.65
2023-05-22T01:20:02.154Z,5.97
2023-05-22T01:23:04.190Z,5.72
2023-05-22T01:26:03.736Z,5.93
2023-05-22T01:28:48.894Z,5.65
2023-05-22T01:31:23.973Z,5.35
2023-05-22T01:34:00.074Z,6.05
2023-05-22T01:36:35.099Z,5.53
2023-05-22T01:39:06.109Z,5.82
2023-05-22T01:41:34.263Z,5.80
2023-05-22T01:44:02.248Z,5.95
2023-05-22T01:46:30.366Z,6.10
2023-05-22T01:48:58.455Z,5.88
2023-05-22T01:51:53.561Z,5.40
2023-05-22T01:54:30.266Z,5.80
2023-05-22T01:57:06.393Z,5.90
2023-05-22T01:59:59.965Z,5.95
2023-05-22T02:02:28.576Z,6.13
2023-05-22T02:05:00.722Z,5.82
2023-05-22T02:07:28.713Z,6.18
2023-05-22T02:09:58.286Z,5.78
2023-05-22T02:12:25.812Z,5.50
2023-05-22T02:14:54.574Z,5.95
2023-05-22T02:17:22.162Z,6.07
2023-05-22T02:19:49.296Z,6.28
2023-05-22T02:22:16.273Z,6.18
2023-05-22T02:24:47.259Z,6.32
2023-05-22T02:27:16.890Z,5.63
2023-05-22T02:29:43.965Z,5.93
2023-05-22T02:32:11.662Z,5.65
2023-05-22T02:34:38.752Z,6.10
2023-05-22T02:37:06.142Z,5.88
2023-05-22T02:39:33.186Z,6.03
2023-05-22T02:42:00.867Z,6.38
2023-05-22T02:44:28.012Z,6.00
2023-05-22T02:46:55.183Z,6.55
2023-05-22T02:49:22.291Z,5.72
2023-05-22T02:51:49.432Z,6.25
2023-05-22T02:54:16.642Z,6.18
2023-05-22T02:56:43.966Z,6.07
2023-05-22T02:59:11.320Z,5.97
2023-05-22T03:01:39.796Z,6.57
2023-05-22T03:04:06.957Z,6.07
2023-05-22T03:06:35.442Z,6.65
2023-05-22T03:09:04.348Z,6.38
2023-05-22T03:11:32.518Z,6.32
2023-05-22T03:13:59.548Z,6.70
2023-05-22T03:16:27.131Z,5.88
2023-05-22T03:19:11.878Z,6.00
2023-05-22T03:21:39.782Z,6.25
2023-05-22T03:24:07.966Z,5.72
2023-05-22T03:26:35.021Z,6.43
2023-05-22T03:29:04.870Z,5.85
2023-05-22T03:31:33.751Z,5.90
2023-05-22T03:34:08.436Z,6.15
2023-05-22T03:36:37.272Z,5.95
2023-05-22T03:39:05.488Z,6.07
2023-05-22T03:41:37.172Z,6.10
2023-05-22T03:44:05.055Z,5.82
2023-05-22T03:46:33.494Z,5.90
2023-05-22T03:49:00.487Z,6.22
2023-05-22T03:51:27.566Z,6.50
2023-05-22T03:53:54.543Z,6.50
2023-05-22T03:56:21.569Z,6.18
2023-05-22T03:58:50.241Z,6.10
2023-05-22T04:01:18.191Z,6.05
2023-05-22T04:03:45.383Z,6.05
2023-05-22T04:06:13.864Z,6.03
2023-05-22T04:08:41.191Z,6.28
2023-05-22T04:11:08.371Z,6.28
2023-05-22T04:13:35.529Z,5.72
2023-05-22T04:16:04.290Z,6.13
2023-05-22T04:18:31.440Z,5.90
2023-05-22T04:20:58.459Z,6.40
2023-05-22T04:23:25.716Z,6.38
2023-05-22T04:25:52.961Z,5.43
2023-05-22T04:28:23.412Z,6.35
2023-05-22T04:30:50.570Z,6.40
2023-05-22T04:33:18.564Z,6.57
2023-05-22T04:35:47.758Z,6.40
2023-05-22T04:38:16.183Z,6.03
2023-05-22T04:40:44.576Z,6.40
2023-05-22T04:43:12.622Z,5.93
2023-05-22T04:45:42.335Z,6.18
2023-05-22T04:48:09.511Z,6.40
2023-05-22T04:50:38.948Z,5.90
2023-05-22T04:53:06.822Z,6.30
2023-05-22T04:55:37.058Z,6.60
2023-05-22T04:58:05.882Z,6.38
2023-05-22T05:00:33.350Z,6.63
2023-05-22T05:03:00.726Z,6.88
2023-05-22T05:05:27.903Z,6.50
2023-05-22T05:07:55.755Z,6.68
2023-05-22T05:10:23.722Z,6.50
2023-05-22T05:12:50.882Z,6.93
2023-05-22T05:15:18.864Z,6.20
2023-05-22T05:17:46.640Z,6.70
2023-05-22T05:20:14.791Z,6.18
2023-05-22T05:22:44.006Z,6.57
2023-05-22T05:25:13.209Z,7.32
2023-05-22T05:27:40.461Z,6.57
2023-05-22T05:30:09.332Z,6.85
2023-05-22T05:32:50.622Z,6.90
2023-05-22T05:35:34.108Z,6.60
2023-05-22T05:38:08.745Z,6.85
2023-05-22T05:40:38.360Z,6.95
2023-05-22T05:43:09.360Z,6.45
2023-05-22T05:45:37.286Z,6.90
2023-05-22T05:48:04.703Z,6.80
2023-05-22T05:50:33.105Z,7.05
2023-05-22T05:53:01.558Z,6.80
2023-05-22T05:55:28.865Z,6.43
2023-05-22T05:57:58.237Z,6.35
2023-05-22T06:00:36.513Z,7.22
2023-05-22T06:03:04.123Z,6.75
2023-05-22T06:05:52.235Z,6.68
2023-05-22T06:08:34.566Z,7.10
2023-05-22T06:11:02.440Z,7.00
2023-05-22T06:13:37.515Z,6.60
2023-05-22T06:16:06.759Z,7.18
2023-05-22T06:18:34.777Z,6.68
2023-05-22T06:21:01.973Z,7.03
2023-05-22T06:23:29.057Z,6.88
2023-05-22T06:25:57.390Z,6.95
2023-05-22T06:28:25.749Z,6.47
2023-05-22T06:30:53.045Z,7.25
2023-05-22T06:33:22.951Z,6.60
2023-05-22T06:35:50.478Z,6.68
2023-05-22T06:38:17.792Z,6.63
2023-05-22T06:40:45.062Z,6.85
2023-05-22T06:43:21.690Z,6.82
2023-05-22T06:45:55.682Z,6.05
2023-05-22T06:48:22.998Z,6.55
2023-05-22T06:51:12.743Z,6.55
2023-05-22T06:53:41.140Z,6.70
2023-05-22T06:56:13.839Z,6.20
2023-05-22T06:58:49.786Z,6.60
2023-05-22T07:01:16.994Z,6.82
2023-05-22T07:04:00.501Z,6.38
2023-05-22T07:06:38.824Z,6.43
2023-05-22T07:09:06.554Z,6.25
2023-05-22T07:11:34.066Z,6.50
2023-05-22T07:14:02.580Z,6.63
2023-05-22T07:16:31.314Z,6.85
2023-05-22T07:18:58.673Z,6.30
2023-05-22T07:21:26.339Z,6.38
2023-05-22T07:23:54.791Z,6.97
2023-05-22T07:26:23.334Z,6.60
2023-05-22T07:29:01.151Z,6.20
2023-05-22T07:31:28.799Z,6.50
2023-05-22T07:33:56.062Z,6.10
2023-05-22T07:36:23.151Z,6.90
2023-05-22T07:38:50.151Z,6.68
2023-05-22T07:41:17.751Z,6.43
2023-05-22T07:43:45.009Z,6.65
2023-05-22T07:46:16.329Z,6.68
2023-05-22T07:48:55.396Z,6.45
2023-05-22T07:51:22.499Z,6.30
2023-05-22T07:53:51.670Z,6.60
2023-05-22T07:56:18.753Z,6.40
2023-05-22T07:58:50.921Z,6.53
2023-05-22T08:01:20.317Z,6.25
2023-05-22T08:03:47.602Z,6.13
2023-05-22T08:06:16.295Z,6.80
2023-05-22T08:08:43.448Z,6.07
2023-05-22T08:11:10.676Z,5.88
2023-05-22T08:13:38.820Z,5.88
2023-05-22T08:16:06.803Z,6.13
2023-05-22T08:18:34.091Z,6.15
2023-05-22T08:21:01.342Z,6.05
2023-05-22T08:23:28.589Z,6.20
2023-05-22T08:25:56.507Z,6.32
2023-05-22T08:28:23.480Z,6.07
2023-05-22T08:30:51.089Z,5.70
2023-05-22T08:33:19.771Z,6.30
2023-05-22T08:35:46.849Z,5.82
2023-05-22T08:38:13.825Z,6.03
2023-05-22T08:40:43.268Z,6.00
2023-05-22T08:43:12.378Z,5.95
2023-05-22T08:45:42.502Z,6.82
2023-05-22T08:48:13.357Z,6.30
2023-05-22T08:50:44.562Z,5.93
2023-05-22T08:53:15.144Z,5.60
2023-05-22T08:55:42.629Z,6.10
2023-05-22T08:58:11.233Z,6.18
2023-05-22T09:00:38.404Z,6.15
2023-05-22T09:03:07.047Z,5.82
2023-05-22T09:05:34.243Z,5.80
2023-05-22T09:08:15.937Z,6.00
2023-05-22T09:10:46.650Z,5.43
2023-05-22T09:13:27.764Z,5.55
2023-05-22T09:16:12.324Z,5.53
2023-05-22T09:18:40.580Z,6.00
2023-05-22T09:21:21.409Z,5.57
2023-05-22T09:24:00.094Z,6.22
2023-05-22T09:26:29.413Z,5.68
2023-05-22T09:28:58.928Z,6.00
2023-05-22T09:31:26.195Z,5.65
2023-05-22T09:33:53.964Z,5.63
2023-05-22T09:36:22.131Z,5.45
2023-05-22T09:38:49.407Z,5.07
2023-05-22T09:41:22.612Z,5.20
2023-05-22T09:43:52.425Z,5.00
2023-05-22T09:46:19.535Z,5.45
2023-05-22T09:48:52.410Z,5.60
2023-05-22T09:51:26.754Z,5.85
2023-05-22T09:54:03.477Z,5.60
2023-05-22T09:56:39.586Z,5.15
2023-05-22T09:59:09.976Z,5.20
2023-05-22T10:01:39.856Z,5.13
2023-05-22T10:04:12.959Z,5.03
2023-05-22T10:06:41.338Z,5.10
2023-05-22T10:09:14.313Z,4.60
2023-05-22T10:11:42.194Z,4.80
2023-05-22T10:14:09.589Z,4.90
2023-05-22T10:16:41.391Z,4.78
2023-05-22T10:19:09.130Z,5.10
2023-05-22T10:21:37.132Z,5.03
2023-05-22T10:24:06.255Z,4.95
2023-05-22T10:26:33.611Z,5.15
2023-05-22T10:29:11.428Z,4.50
2023-05-22T10:31:44.479Z,5.13
2023-05-22T10:35:05.068Z,5.10
2023-05-22T10:37:43.499Z,4.68
2023-05-22T10:40:19.059Z,5.10
2023-05-22T10:42:46.862Z,5.03
2023-05-22T10:45:14.864Z,4.75
2023-05-22T10:47:42.548Z,4.90
2023-05-22T10:50:11.691Z,5.10
2023-05-22T10:52:40.039Z,4.70
2023-05-22T10:55:09.418Z,5.05
2023-05-22T10:57:40.164Z,4.80
2023-05-22T11:00:15.666Z,4.72
2023-05-22T11:02:46.330Z,4.25
2023-05-22T11:05:21.674Z,4.40
2023-05-22T11:07:49.152Z,4.50
2023-05-22T11:10:55.257Z,4.80
2023-05-22T11:13:28.220Z,4.30
2023-05-22T11:15:57.792Z,4.50
2023-05-22T11:18:29.075Z,5.00
2023-05-22T11:20:56.153Z,4.55
2023-05-22T11:23:25.719Z,4.63
2023-05-22T11:25:52.798Z,4.50
2023-05-22T11:28:19.784Z,4.50
2023-05-22T11:30:47.372Z,4.38
2023-05-22T11:33:15.219Z,4.55
2023-05-22T11:35:44.604Z,4.38
2023-05-22T11:38:11.739Z,4.60
2023-05-22T11:40:39.076Z,4.88
2023-05-22T11:43:06.338Z,4.72
2023-05-22T11:45:37.778Z,4.45
2023-05-22T11:48:04.777Z,4.40
2023-05-22T11:50:41.853Z,4.68
2023-05-22T11:53:10.792Z,4.28
2023-05-22T11:55:37.837Z,4.22
2023-05-22T11:58:04.848Z,4.15
2023-05-22T12:00:32.478Z,4.55
2023-05-22T12:02:59.749Z,4.38
2023-05-22T12:05:26.963Z,4.40
2023-05-22T12:07:54.251Z,4.35
2023-05-22T12:10:21.303Z,4.60
2023-05-22T12:12:48.621Z,4.53
2023-05-22T12:15:20.152Z,4.75
2023-05-22T12:17:47.283Z,4.10
2023-05-22T12:20:14.843Z,4.25
2023-05-22T12:22:43.802Z,4.28
2023-05-22T12:25:20.677Z,4.03
2023-05-22T12:27:47.795Z,4.20
2023-05-22T12:30:15.538Z,4.18
2023-05-22T12:32:48.491Z,4.15
2023-05-22T12:35:16.937Z,4.40
2023-05-22T12:37:53.534Z,4.28
2023-05-22T12:40:20.677Z,4.10
2023-05-22T12:42:48.878Z,3.78
2023-05-22T12:45:17.966Z,4.20
2023-05-22T12:47:45.775Z,4.05
2023-05-22T12:50:18.608Z,4.05
2023-05-22T12:52:45.730Z,3.88
2023-05-22T12:55:12.732Z,3.90
2023-05-22T12:57:39.686Z,4.07
2023-05-22T13:00:07.416Z,3.85
2023-05-22T13:02:34.551Z,3.97
2023-05-22T13:05:01.686Z,4.00
2023-05-22T13:07:28.862Z,3.72
2023-05-22T13:09:55.896Z,4.05
2023-05-22T13:12:23.651Z,3.90
2023-05-22T13:14:50.864Z,4.20
2023-05-22T13:17:17.932Z,4.07
2023-05-22T13:19:44.952Z,3.65
2023-05-22T13:22:12.166Z,3.92
2023-05-22T13:24:39.145Z,3.90
2023-05-22T13:27:06.525Z,3.90
2023-05-22T13:29:33.877Z,4.03
2023-05-22T13:32:01.671Z,3.80
2023-05-22T13:34:29.231Z,4.00
2023-05-22T13:36:56.592Z,3.60
2023-05-22T13:39:23.688Z,3.90
2023-05-22T13:41:52.982Z,3.70
2023-05-22T13:44:21.268Z,3.95
2023-05-22T13:46:48.371Z,3.65
2023-05-22T13:49:15.469Z,4.10
2023-05-22T13:51:42.464Z,3.97
2023-05-22T13:54:09.550Z,4.18
2023-05-22T13:56:36.582Z,4.05
2023-05-22T13:59:06.985Z,4.28
2023-05-22T14:01:35.756Z,3.97
2023-05-22T14:04:03.715Z,4.30
2023-05-22T14:06:30.720Z,4.22
2023-05-22T14:08:57.794Z,3.90
2023-05-22T14:11:24.784Z,4.43
2023-05-22T14:13:54.067Z,3.80
2023-05-22T14:16:22.733Z,3.85
2023-05-22T14:18:49.864Z,3.97
2023-05-22T14:21:18.873Z,4.00
2023-05-22T14:23:45.874Z,4.07
2023-05-22T14:26:14.600Z,4.32
2023-05-22T14:28:42.772Z,3.90
2023-05-22T14:31:10.024Z,4.25
2023-05-22T14:33:37.246Z,4.13
2023-05-22T14:36:04.448Z,4.40
2023-05-22T14:38:35.294Z,4.75
2023-05-22T14:41:02.871Z,3.95
2023-05-22T14:43:29.895Z,4.28
2023-05-22T14:45:58.150Z,4.32
2023-05-22T14:48:26.465Z,4.22
2023-05-22T14:50:53.932Z,4.10
2023-05-22T14:53:21.281Z,4.25
2023-05-22T14:55:48.388Z,4.18
2023-05-22T14:58:15.431Z,4.15
2023-05-22T15:00:42.858Z,4.10
2023-05-22T15:03:10.168Z,4.28
2023-05-22T15:05:37.543Z,4.50
2023-05-22T15:08:04.647Z,4.18
2023-05-22T15:10:31.657Z,4.15
2023-05-22T15:12:58.756Z,4.15
2023-05-22T15:15:25.985Z,4.07
2023-05-22T15:17:53.124Z,4.00
2023-05-22T15:20:20.248Z,4.32
2023-05-22T15:22:47.278Z,4.20
2023-05-22T15:25:16.937Z,3.83
2023-05-22T15:27:43.991Z,4.10
2023-05-22T15:30:12.282Z,4.03
2023-05-22T15:32:39.677Z,4.10
2023-05-22T15:35:07.593Z,4.32
2023-05-22T15:37:36.457Z,4.10
2023-05-22T15:40:04.727Z,4.18
2023-05-22T15:42:32.140Z,3.88
2023-05-22T15:45:00.208Z,4.30
2023-05-22T15:47:27.534Z,4.43
2023-05-22T15:49:54.704Z,4.40
2023-05-22T15:52:24.467Z,4.30
2023-05-22T15:54:51.606Z,4.20
2023-05-22T15:57:18.682Z,4.05
2023-05-22T15:59:47.357Z,4.40
2023-05-22T16:02:14.633Z,4.15
2023-05-22T16:04:41.869Z,4.43
2023-05-22T16:07:08.982Z,4.75
2023-05-22T16:09:36.360Z,4.47
2023-05-22T16:12:03.958Z,4.55
2023-05-22T16:14:31.381Z,4.53
2023-05-22T16:16:58.492Z,4.18
2023-05-22T16:19:25.673Z,4.18
2023-05-22T16:21:52.834Z,4.65
2023-05-22T16:24:19.801Z,3.97
2023-05-22T16:26:46.818Z,4.30
2023-05-22T16:29:13.861Z,4.20
2023-05-22T16:31:40.970Z,3.95
2023-05-22T16:34:08.011Z,4.20
2023-05-22T16:36:35.020Z,4.53
2023-05-22T16:39:02.000Z,4.45
2023-05-22T16:41:29.088Z,4.50
2023-05-22T16:43:56.065Z,4.20
2023-05-22T16:46:23.216Z,4.45
2023-05-22T16:48:50.558Z,4.20
2023-05-22T16:51:17.589Z,4.47
2023-05-22T16:53:44.710Z,4.07
2023-05-22T16:56:11.719Z,4.30
2023-05-22T16:58:41.620Z,4.30
2023-05-22T17:01:08.789Z,4.30
2023-05-22T17:03:36.022Z,4.38
2023-05-22T17:06:03.701Z,4.10
2023-05-22T17:08:32.199Z,3.92
2023-05-22T17:10:59.365Z,4.20
2023-05-22T17:13:26.418Z,4.20
2023-05-22T17:15:53.396Z,3.90
2023-05-22T17:18:21.028Z,4.40
2023-05-22T17:20:53.964Z,4.45
2023-05-22T17:23:21.124Z,4.38
2023-05-22T17:25:48.183Z,4.32
2023-05-22T17:28:15.584Z,4.53
2023-05-22T17:30:44.219Z,4.28
2023-05-22T17:33:12.369Z,4.13
2023-05-22T17:35:39.700Z,4.45
2023-05-22T17:38:08.565Z,4.00
2023-05-22T17:40:43.855Z,4.30
2023-05-22T17:43:12.240Z,4.35
2023-05-22T17:45:39.396Z,4.38
2023-05-22T17:48:07.928Z,4.25
2023-05-22T17:50:35.412Z,4.43
2023-05-22T17:53:02.448Z,4.38
2023-05-22T17:55:29.439Z,5.00
2023-05-22T17:57:56.580Z,4.45
2023-05-22T18:00:23.719Z,4.68
2023-05-22T18:02:50.946Z,4.25
2023-05-22T18:05:18.069Z,4.82
2023-05-22T18:07:45.049Z,4.45
2023-05-22T18:10:12.068Z,4.68
2023-05-22T18:12:39.345Z,4.72
2023-05-22T18:15:09.702Z,4.70
2023-05-22T18:17:36.947Z,4.60
2023-05-22T18:20:07.425Z,5.00
2023-05-22T18:22:37.106Z,4.80
2023-05-22T18:25:05.029Z,4.85
2023-05-22T18:27:32.487Z,5.35
2023-05-22T18:29:59.470Z,5.22
2023-05-22T18:32:26.530Z,5.03
2023-05-22T18:34:53.517Z,4.68
2023-05-22T18:37:20.779Z,5.28
2023-05-22T18:39:48.122Z,4.93
2023-05-22T18:42:15.205Z,4.88
2023-05-22T18:44:42.378Z,4.97
2023-05-22T18:47:09.522Z,4.95
2023-05-22T18:49:36.591Z,5.35
2023-05-22T18:52:03.690Z,5.65
2023-05-22T18:54:30.767Z,4.88
2023-05-22T18:56:57.766Z,5.78
2023-05-22T18:59:24.735Z,5.32
2023-05-22T19:01:51.700Z,5.07
2023-05-22T19:04:18.706Z,5.18
2023-05-22T19:06:45.957Z,4.97
2023-05-22T19:09:13.589Z,5.72
2023-05-22T19:11:40.686Z,6.00
2023-05-22T19:14:07.747Z,5.97
2023-05-22T19:16:34.807Z,5.22
2023-05-22T19:19:01.902Z,5.57
2023-05-22T19:21:28.983Z,6.30
2023-05-22T19:23:55.973Z,4.95
2023-05-22T19:26:22.976Z,5.70
2023-05-22T19:28:50.090Z,5.80
2023-05-22T19:31:17.665Z,5.43
2023-05-22T19:33:44.766Z,5.78
2023-05-22T19:36:11.784Z,5.90
2023-05-22T19:38:38.785Z,5.47
2023-05-22T19:41:05.886Z,6.30
2023-05-22T19:43:33.086Z,5.70
2023-05-22T19:46:00.234Z,5.40
2023-05-22T19:48:28.140Z,5.88
2023-05-22T19:50:55.228Z,5.38
2023-05-22T19:53:22.170Z,5.55
2023-05-22T19:55:49.993Z,5.70
2023-05-22T19:58:17.177Z,6.38
2023-05-22T20:00:44.330Z,6.05
2023-05-22T20:03:11.810Z,6.25
2023-05-22T20:05:39.218Z,6.22
2023-05-22T20:08:07.660Z,5.80
2023-05-22T20:10:34.713Z,6.15
2023-05-22T20:13:01.733Z,6.80
2023-05-22T20:15:30.552Z,5.90
2023-05-22T20:17:57.964Z,5.90
2023-05-22T20:20:25.067Z,6.38
2023-05-22T20:22:53.760Z,6.47
2023-05-22T20:25:21.593Z,6.50
2023-05-22T20:27:48.750Z,6.13
2023-05-22T20:30:15.820Z,6.13
2023-05-22T20:32:45.560Z,6.38
2023-05-22T20:35:13.368Z,6.20
2023-05-22T20:37:41.707Z,6.35
2023-05-22T20:40:09.666Z,6.15
2023-05-22T20:42:37.781Z,6.40
2023-05-22T20:45:06.080Z,6.88
2023-05-22T20:47:35.133Z,6.47
2023-05-22T20:50:02.448Z,5.95
2023-05-22T20:52:33.724Z,6.13
2023-05-22T20:55:01.178Z,6.25
2023-05-22T20:57:28.131Z,6.78
2023-05-22T20:59:56.004Z,6.43
2023-05-22T21:02:22.989Z,6.10
2023-05-22T21:04:49.985Z,6.68
2023-05-22T21:07:18.208Z,6.78
2023-05-22T21:09:45.197Z,6.15
2023-05-22T21:12:12.207Z,6.38
2023-05-22T21:14:40.280Z,5.95
2023-05-22T21:17:07.515Z,6.00
2023-05-22T21:19:34.604Z,5.97
2023-05-22T21:22:01.774Z,6.57
2023-05-22T21:24:28.727Z,6.10
2023-05-22T21:26:55.896Z,6.43
2023-05-22T21:29:22.906Z,6.53
2023-05-22T21:31:50.199Z,6.20
2023-05-22T21:34:17.255Z,6.25
2023-05-22T21:36:44.359Z,6.63
2023-05-22T21:39:12.176Z,6.40
2023-05-22T21:41:39.249Z,6.88
2023-05-22T21:44:06.417Z,7.50
2023-05-22T21:46:33.533Z,6.95
2023-05-22T21:49:03.122Z,7.07
2023-05-22T21:51:30.326Z,6.75
2023-05-22T21:53:57.484Z,7.18
2023-05-22T21:56:24.606Z,7.32
2023-05-22T21:58:51.666Z,6.88
2023-05-22T22:01:18.846Z,7.43
2023-05-22T22:03:45.923Z,7.38
2023-05-22T22:06:12.985Z,7.00
2023-05-22T22:08:40.109Z,7.13
2023-05-22T22:11:07.257Z,7.15
2023-05-22T22:13:34.407Z,7.72
2023-05-22T22:16:01.461Z,7.22
2023-05-22T22:18:32.345Z,6.60
2023-05-22T22:21:02.240Z,7.32
2023-05-22T22:23:29.795Z,6.93
2023-05-22T22:25:56.982Z,7.18
2023-05-22T22:28:24.117Z,7.40
2023-05-22T22:30:55.085Z,6.90
2023-05-22T22:33:22.897Z,6.68
2023-05-22T22:35:50.106Z,7.13
2023-05-22T22:38:17.569Z,7.13
2023-05-22T22:40:44.642Z,7.60
2023-05-22T22:43:11.790Z,7.03
2023-05-22T22:45:40.221Z,6.72
2023-05-22T22:48:07.685Z,7.63
2023-05-22T22:50:34.940Z,6.60
2023-05-22T22:53:02.040Z,7.18
2023-05-22T22:55:29.206Z,7.13
2023-05-22T22:57:56.393Z,7.28
2023-05-22T23:00:23.693Z,7.10
2023-05-22T23:02:50.760Z,7.10
2023-05-22T23:05:20.470Z,7.07
2023-05-22T23:07:48.189Z,7.28
2023-05-22T23:10:15.556Z,7.32
2023-05-22T23:12:42.585Z,7.15
2023-05-22T23:15:11.200Z,7.30
2023-05-22T23:17:38.342Z,6.78
2023-05-22T23:20:06.053Z,7.22
2023-05-22T23:22:33.077Z,6.93
2023-05-22T23:25:00.172Z,7.57
2023-05-22T23:27:27.207Z,7.78
2023-05-22T23:29:54.207Z,7.03
2023-05-22T23:32:21.758Z,7.57
2023-05-22T23:34:48.776Z,6.95
2023-05-22T23:37:16.026Z,7.30
2023-05-22T23:39:43.055Z,7.80
2023-05-22T23:42:11.157Z,7.55
2023-05-22T23:44:38.256Z,7.57
2023-05-22T23:47:06.401Z,7.50
2023-05-22T23:49:33.721Z,6.70
2023-05-22T23:52:00.954Z,7.30
2023-05-22T23:54:27.946Z,7.57
2023-05-22T23:56:54.903Z,7.78
2023-05-22T23:59:22.181Z,7.88
